Time;durP1;ratioP1;P1;durP2;ratioP2;P2;SDS_P1;SDS_P2;PMS_P1;PMS_P2;Temp;Humidity;BMP_temperature;BMP_pressure;BME280_temperature;BME280_humidity;BME280_pressure;Samples;Min_cycle;Max_cycle;Signal;HPM_P1;HPM_P2
2021/03/08 00:02:05;;;;;;;3.03;1.25;;;;;;;-3.61;58.53;97672.69;5058841;28;20049;-64
2021/03/08 00:04:30;;;;;;;2.20;0.90;;;;;;;-3.71;58.28;97685.47;5056710;28;20083;-60
2021/03/08 00:06:55;;;;;;;3.13;0.98;;;;;;;-3.78;58.40;97677.09;5072768;28;20044;-63
2021/03/08 00:09:21;;;;;;;1.40;0.75;;;;;;;-3.87;58.68;97675.03;5072965;28;20037;-62
2021/03/08 00:11:46;;;;;;;2.83;0.73;;;;;;;-3.96;58.86;97689.44;5072833;28;20035;-62
2021/03/08 00:14:12;;;;;;;3.20;0.90;;;;;;;-4.00;58.85;97685.31;5070971;28;20206;-64
2021/03/08 00:16:37;;;;;;;1.88;0.70;;;;;;;-4.09;58.55;97686.69;5071310;28;20115;-63
2021/03/08 00:19:03;;;;;;;3.15;0.60;;;;;;;-4.11;59.10;97698.13;5072465;28;20044;-63
2021/03/08 00:21:29;;;;;;;4.35;0.70;;;;;;;-4.20;58.99;97682.03;5072949;28;20365;-63
2021/03/08 00:23:54;;;;;;;3.53;0.70;;;;;;;-4.31;58.75;97663.50;5072745;28;20037;-63
2021/03/08 00:26:20;;;;;;;1.90;0.70;;;;;;;-4.26;59.15;97679.78;5072956;28;20037;-63
2021/03/08 00:28:45;;;;;;;1.63;0.50;;;;;;;-4.31;58.95;97689.63;5072704;28;20415;-63
2021/03/08 00:31:11;;;;;;;8.60;0.60;;;;;;;-4.25;59.12;97685.81;5070485;28;20040;-63
2021/03/08 00:33:36;;;;;;;1.95;0.60;;;;;;;-4.23;59.46;97684.81;5072303;28;20412;-63
2021/03/08 00:36:02;;;;;;;1.95;0.80;;;;;;;-4.30;59.10;97659.97;5070647;28;20040;-60
2021/03/08 00:38:27;;;;;;;1.85;0.70;;;;;;;-4.12;58.67;97683.38;5067171;28;20465;-62
2021/03/08 00:40:53;;;;;;;1.92;0.70;;;;;;;-4.05;58.61;97677.72;5052337;28;20469;-63
2021/03/08 00:43:18;;;;;;;2.58;0.85;;;;;;;-3.99;58.22;97676.56;5052681;28;20037;-63
2021/03/08 00:45:44;;;;;;;2.55;0.73;;;;;;;-3.91;57.96;97671.72;5051931;28;20036;-62
2021/03/08 00:48:09;;;;;;;1.55;0.70;;;;;;;-4.15;57.72;97620.84;5052032;28;20116;-62
2021/03/08 00:50:35;;;;;;;1.48;0.70;;;;;;;-4.27;57.55;97591.88;5055998;28;20067;-63
2021/03/08 00:53:00;;;;;;;2.70;0.77;;;;;;;-3.79;57.17;97653.69;5068036;28;20064;-63
2021/03/08 00:55:26;;;;;;;3.15;0.63;;;;;;;-3.75;57.05;97671.69;5071856;28;20040;-63
2021/03/08 00:57:51;;;;;;;1.80;0.45;;;;;;;-3.74;56.96;97672.56;5072049;28;20033;-63
2021/03/08 01:00:23;;;;;;;1.30;0.60;;;;;;;-3.76;57.06;97664.78;5055967;28;20491;-63
2021/03/08 01:02:52;;;;;;;1.10;0.40;;;;;;;-3.79;56.78;97670.19;5068837;28;20040;-58
2021/03/08 01:05:17;;;;;;;2.13;0.50;;;;;;;-3.75;56.76;97674.31;5063716;28;20106;-63
2021/03/08 01:07:44;;;;;;;0.63;0.28;;;;;;;-3.77;56.56;97657.03;5051889;28;20044;-63
2021/03/08 01:10:12;;;;;;;0.90;0.43;;;;;;;-3.72;56.35;97655.00;5052119;28;20041;-62
2021/03/08 01:12:38;;;;;;;1.15;0.30;;;;;;;-3.86;56.28;97639.25;5052044;28;20033;-63
2021/03/08 01:15:06;;;;;;;1.08;0.38;;;;;;;-3.78;56.08;97652.75;5052410;28;20473;-59
2021/03/08 01:17:31;;;;;;;1.13;0.43;;;;;;;-3.94;56.22;97629.25;5052083;28;20080;-63
2021/03/08 01:19:57;;;;;;;1.33;0.30;;;;;;;-3.97;56.12;97635.47;5051714;28;20052;-63
2021/03/08 01:22:22;;;;;;;1.20;0.40;;;;;;;-3.92;56.06;97658.75;5051620;28;20125;-63
2021/03/08 01:24:48;;;;;;;1.15;0.40;;;;;;;-3.99;55.88;97657.41;5051518;28;20038;-63
2021/03/08 01:27:13;;;;;;;1.50;0.50;;;;;;;-4.04;56.00;97650.66;5052291;28;20503;-61
2021/03/08 01:29:39;;;;;;;2.10;0.30;;;;;;;-4.09;55.58;97639.63;5050321;28;20390;-63
2021/03/08 01:32:04;;;;;;;1.85;0.40;;;;;;;-4.03;56.24;97656.75;5051861;28;20083;-64
2021/03/08 01:34:30;;;;;;;1.63;0.28;;;;;;;-4.13;55.81;97645.09;5051224;28;20127;-63
2021/03/08 01:36:55;;;;;;;1.63;0.30;;;;;;;-4.11;55.67;97648.47;5051021;28;20340;-63
2021/03/08 01:39:21;;;;;;;0.93;0.35;;;;;;;-4.09;55.82;97639.63;5052159;28;20062;-61
2021/03/08 01:41:47;;;;;;;2.47;0.32;;;;;;;-4.01;55.71;97654.88;5050880;28;20142;-63
2021/03/08 01:44:12;;;;;;;0.75;0.40;;;;;;;-4.46;55.69;97571.16;5050965;28;20502;-62
2021/03/08 01:46:38;;;;;;;2.90;0.30;;;;;;;-4.01;55.66;97652.28;5050601;28;20028;-62
2021/03/08 01:49:04;;;;;;;3.22;0.80;;;;;;;-4.18;56.01;97627.91;5050383;28;20071;-63
2021/03/08 01:51:30;;;;;;;0.70;0.30;;;;;;;-4.00;55.95;97651.34;5056269;28;20508;-63
2021/03/08 01:53:55;;;;;;;2.67;0.40;;;;;;;-4.00;56.22;97658.34;5053274;28;20039;-64
2021/03/08 01:56:21;;;;;;;1.27;0.52;;;;;;;-4.07;56.17;97644.78;5056158;28;20121;-63
2021/03/08 01:58:46;;;;;;;2.20;0.40;;;;;;;-4.03;56.44;97648.91;5066503;28;20032;-63
2021/03/08 02:01:13;;;;;;;1.17;0.60;;;;;;;-4.01;56.52;97654.88;5060030;28;20064;-62
2021/03/08 02:03:39;;;;;;;4.85;0.65;;;;;;;-3.96;56.27;97657.25;5068864;28;20432;-63
2021/03/08 02:06:05;;;;;;;2.13;0.70;;;;;;;-4.06;56.54;97638.63;5066073;28;20512;-62
2021/03/08 02:08:31;;;;;;;1.58;0.45;;;;;;;-4.13;56.20;97637.28;5050414;28;20544;-61
2021/03/08 02:10:56;;;;;;;1.25;0.43;;;;;;;-4.00;56.57;97667.03;5050454;28;20140;-64
2021/03/08 02:13:38;;;;;;;2.25;0.50;;;;;;;-4.50;56.98;97574.84;5050525;28;20041;-60
2021/03/08 02:16:32;;;;;;;2.92;0.60;;;;;;;-4.08;57.14;97645.72;5051483;28;20035;-62
2021/03/08 02:19:10;;;;;;;2.50;0.90;;;;;;;-4.06;57.17;97654.31;5050314;28;20032;-64
2021/03/08 02:22:03;;;;;;;1.88;0.60;;;;;;;-4.09;57.62;97657.09;5051234;28;20350;-63
2021/03/08 02:24:52;;;;;;;1.77;0.50;;;;;;;-4.08;57.57;97656.19;5050273;28;20037;-62
2021/03/08 02:27:41;;;;;;;1.65;0.50;;;;;;;-4.10;57.98;97673.69;5050143;28;20033;-61
2021/03/08 02:30:58;;;;;;;1.80;0.50;;;;;;;-4.06;57.84;97659.53;5051839;28;20489;-65
2021/03/08 02:33:28;;;;;;;1.90;0.55;;;;;;;-4.10;57.19;97650.16;5048677;28;20033;-61
2021/03/08 02:35:57;;;;;;;1.92;0.50;;;;;;;-4.11;57.40;97648.47;5050287;28;20401;-62
2021/03/08 02:38:28;;;;;;;1.50;0.70;;;;;;;-4.05;57.26;97653.38;5055436;28;20044;-64
2021/03/08 02:40:58;;;;;;;3.10;0.60;;;;;;;-3.99;57.40;97655.66;5067344;28;20039;-62
2021/03/08 02:43:40;;;;;;;2.45;0.52;;;;;;;-3.87;57.37;97658.47;5052081;28;20040;-62
2021/03/08 02:46:12;;;;;;;2.58;0.60;;;;;;;-3.91;56.86;97632.50;5050446;28;20044;-63
2021/03/08 02:48:41;;;;;;;2.50;0.43;;;;;;;-3.83;56.85;97644.31;5049814;28;20492;-64
2021/03/08 02:51:08;;;;;;;2.33;0.50;;;;;;;-3.90;56.76;97639.44;5054813;28;20048;-63
2021/03/08 02:53:37;;;;;;;1.45;0.50;;;;;;;-4.20;56.83;97580.13;5050439;28;20067;-63
2021/03/08 02:56:07;;;;;;;2.15;0.70;;;;;;;-3.92;56.62;97633.44;5050117;28;20036;-62
2021/03/08 02:58:35;;;;;;;4.72;0.60;;;;;;;-3.76;56.54;97651.72;5050813;28;20032;-59
2021/03/08 03:01:04;;;;;;;1.98;0.47;;;;;;;-3.77;56.72;97672.72;5055319;28;20508;-61
2021/03/08 03:03:32;;;;;;;1.60;0.60;;;;;;;-3.76;56.83;97658.72;5059427;28;20044;-63
2021/03/08 03:06:00;;;;;;;1.98;0.47;;;;;;;-3.78;56.31;97671.88;5074812;28;20035;-64
2021/03/08 03:08:28;;;;;;;1.23;0.50;;;;;;;-4.11;56.73;97607.50;5051004;28;20033;-61
2021/03/08 03:10:55;;;;;;;1.42;0.50;;;;;;;-4.25;56.58;97590.00;5050494;28;20056;-65
2021/03/08 03:13:23;;;;;;;1.92;0.88;;;;;;;-4.09;55.44;97583.91;5050534;28;20357;-65
2021/03/08 03:15:50;;;;;;;1.17;0.50;;;;;;;-3.76;56.23;97656.94;5051272;28;20033;-63
2021/03/08 03:18:17;;;;;;;1.63;0.40;;;;;;;-3.86;56.27;97653.19;5051225;28;20040;-61
2021/03/08 03:20:44;;;;;;;1.10;0.40;;;;;;;-3.95;56.08;97651.09;5052724;28;20047;-64
2021/03/08 03:23:11;;;;;;;0.95;0.47;;;;;;;-4.08;56.22;97616.97;5052837;28;20061;-64
2021/03/08 03:25:37;;;;;;;2.85;0.43;;;;;;;-4.40;56.12;97581.25;5052889;28;20029;-64
2021/03/08 03:28:03;;;;;;;0.77;0.40;;;;;;;-4.09;56.09;97657.94;5052496;28;20048;-64
2021/03/08 03:30:31;;;;;;;1.95;0.50;;;;;;;-4.10;55.96;97661.47;5052151;28;20037;-63
2021/03/08 03:32:58;;;;;;;1.23;0.55;;;;;;;-4.03;55.49;97649.72;5052968;28;20047;-63
2021/03/08 03:35:26;;;;;;;2.35;0.70;;;;;;;-3.97;55.67;97655.56;5052178;28;20036;-65
2021/03/08 03:37:52;;;;;;;0.95;0.50;;;;;;;-3.94;55.95;97661.44;5051719;28;20041;-63
2021/03/08 03:40:19;;;;;;;0.75;0.50;;;;;;;-3.83;55.41;97660.03;5051931;28;20028;-63
2021/03/08 03:42:48;;;;;;;2.85;0.70;;;;;;;-3.85;55.35;97648.81;5051970;28;20076;-63
2021/03/08 03:45:15;;;;;;;1.63;0.50;;;;;;;-3.81;55.46;97663.38;5052662;28;20610;-61
2021/03/08 03:47:42;;;;;;;1.13;0.50;;;;;;;-3.81;55.85;97650.31;5064643;28;20037;-64
2021/03/08 03:50:10;;;;;;;3.20;0.40;;;;;;;-3.88;56.24;97649.81;5056896;28;20033;-64
2021/03/08 03:52:38;;;;;;;1.33;0.57;;;;;;;-3.82;56.34;97656.47;5059594;28;20037;-64
2021/03/08 03:55:08;;;;;;;1.15;0.40;;;;;;;-3.80;56.12;97667.69;5051444;28;20824;-62
2021/03/08 03:57:59;;;;;;;0.65;0.38;;;;;;;-4.25;56.47;97591.75;5052534;28;20037;-64
2021/03/08 04:00:27;;;;;;;2.88;1.48;;;;;;;-3.80;56.39;97662.47;5041733;28;629769;-62
2021/03/08 04:03:27;;;;;;;1.95;0.60;;;;;;;-4.05;56.78;97604.56;5057201;28;20065;-61
2021/03/08 04:05:56;;;;;;;2.85;0.60;;;;;;;-3.82;56.76;97666.94;5059555;28;20036;-62
2021/03/08 04:08:26;;;;;;;2.17;0.60;;;;;;;-3.81;56.96;97661.59;5072171;28;20427;-64
2021/03/08 04:10:53;;;;;;;1.45;0.50;;;;;;;-3.84;56.99;97661.78;5072103;28;20036;-63
2021/03/08 04:13:22;;;;;;;6.18;0.82;;;;;;;-3.85;56.81;97660.09;5072846;28;20033;-62
2021/03/08 04:15:48;;;;;;;1.05;0.45;;;;;;;-3.71;57.00;97676.78;5052857;28;20033;-63
2021/03/08 04:18:15;;;;;;;2.22;0.85;;;;;;;-3.72;56.95;97668.06;5051482;28;20055;-62
2021/03/08 04:20:44;;;;;;;0.85;0.50;;;;;;;-3.67;56.87;97678.28;5057664;28;20086;-65
2021/03/08 04:23:12;;;;;;;2.15;0.68;;;;;;;-3.70;57.04;97679.28;5053601;28;20048;-62
2021/03/08 04:25:40;;;;;;;4.20;0.60;;;;;;;-3.69;57.28;97691.44;5054338;28;20465;-60
2021/03/08 04:28:07;;;;;;;2.75;0.98;;;;;;;-3.67;56.93;97684.34;5072341;28;20116;-63
2021/03/08 04:30:34;;;;;;;1.42;0.60;;;;;;;-3.63;56.72;97691.06;5069775;28;20764;-64
2021/03/08 04:33:00;;;;;;;1.02;0.50;;;;;;;-3.44;56.08;97702.28;5052648;28;20082;-64
2021/03/08 04:35:28;;;;;;;0.88;0.45;;;;;;;-3.45;55.84;97693.56;5053366;28;20037;-63
2021/03/08 04:37:57;;;;;;;4.88;0.90;;;;;;;-3.51;56.44;97699.16;5051461;28;20044;-61
2021/03/08 04:40:24;;;;;;;1.38;0.63;;;;;;;-3.45;55.88;97683.13;5060687;28;20044;-64
2021/03/08 04:42:50;;;;;;;1.25;0.60;;;;;;;-3.35;55.77;97692.13;5054613;28;20519;-64
2021/03/08 04:45:18;;;;;;;1.48;0.70;;;;;;;-3.44;55.97;97676.13;5063693;28;20496;-61
2021/03/08 04:47:45;;;;;;;2.25;0.60;;;;;;;-3.16;55.51;97714.59;5062459;28;20037;-62
2021/03/08 04:50:13;;;;;;;1.35;0.50;;;;;;;-3.08;55.43;97709.75;5049685;28;20035;-60
2021/03/08 04:52:39;;;;;;;1.83;0.70;;;;;;;-2.97;55.11;97718.75;5063758;28;20045;-62
2021/03/08 04:55:09;;;;;;;2.38;0.60;;;;;;;-2.77;55.11;97728.06;5056031;28;20060;-63
2021/03/08 04:57:35;;;;;;;1.13;0.60;;;;;;;-2.61;54.18;97720.09;5068215;28;20492;-63
2021/03/08 05:00:06;;;;;;;2.17;0.30;;;;;;;-2.55;54.45;97735.44;5054171;28;20481;-63
2021/03/08 05:02:34;;;;;;;1.95;0.40;;;;;;;-2.47;54.26;97734.97;5049136;28;20041;-62
2021/03/08 05:05:02;;;;;;;0.93;0.52;;;;;;;-2.45;54.24;97736.56;5052397;28;20032;-64
2021/03/08 05:07:30;;;;;;;1.65;0.50;;;;;;;-2.37;53.91;97732.66;5071413;28;20058;-65
2021/03/08 05:09:57;;;;;;;1.35;0.68;;;;;;;-2.29;53.94;97743.50;5066359;28;20036;-65
2021/03/08 05:12:27;;;;;;;1.00;0.55;;;;;;;-2.30;53.58;97731.31;5065207;28;20067;-64
2021/03/08 05:14:55;;;;;;;1.75;0.55;;;;;;;-2.07;53.21;97753.47;5055912;28;20505;-64
2021/03/08 05:17:22;;;;;;;3.90;0.63;;;;;;;-2.17;52.99;97726.16;5050987;28;20059;-65
2021/03/08 05:19:49;;;;;;;2.20;0.52;;;;;;;-2.00;52.29;97737.38;5051808;28;20033;-57
2021/03/08 05:22:16;;;;;;;1.75;0.60;;;;;;;-1.91;52.31;97758.63;5051518;28;20028;-65
2021/03/08 05:24:49;;;;;;;1.33;0.52;;;;;;;-1.90;52.05;97770.81;5052384;28;20036;-65
2021/03/08 05:27:16;;;;;;;1.92;0.50;;;;;;;-1.81;52.55;97784.25;5051115;28;20097;-58
2021/03/08 05:29:43;;;;;;;0.82;0.30;;;;;;;-1.80;52.20;97789.44;5049870;28;20036;-63
2021/03/08 05:32:24;;;;;;;2.45;0.75;;;;;;;-2.28;51.92;97720.75;5051230;28;20404;-64
2021/03/08 05:34:51;;;;;;;3.88;0.60;;;;;;;-1.82;52.03;97800.94;5057413;28;20024;-63
2021/03/08 05:37:20;;;;;;;1.55;0.60;;;;;;;-1.86;51.62;97804.72;5057008;28;20068;-64
2021/03/08 05:39:47;;;;;;;1.13;0.60;;;;;;;-1.90;52.08;97804.91;5062462;28;20068;-64
2021/03/08 05:42:15;;;;;;;1.35;0.52;;;;;;;-1.79;51.97;97811.25;5059714;28;20033;-63
2021/03/08 05:45:08;;;;;;;3.28;0.75;;;;;;;-1.66;51.96;97816.56;5050968;28;20032;-64
2021/03/08 05:47:49;;;;;;;4.38;0.85;;;;;;;-1.65;51.71;97823.50;5050156;28;20079;-65
2021/03/08 05:50:36;;;;;;;1.77;0.60;;;;;;;-1.67;51.81;97830.63;5052916;28;20033;-63
2021/03/08 05:53:13;;;;;;;2.28;0.60;;;;;;;-1.60;51.23;97838.03;5062555;28;20218;-64
2021/03/08 05:56:01;;;;;;;3.55;0.80;;;;;;;-1.40;50.85;97850.81;5059234;28;20039;-64
2021/03/08 05:58:51;;;;;;;2.38;0.60;;;;;;;-0.95;50.55;97853.22;5052077;28;20524;-62
2021/03/08 06:01:34;;;;;;;1.77;0.80;;;;;;;0.31;48.49;97852.69;5064397;28;20596;-64
2021/03/08 06:04:18;;;;;;;1.88;0.80;;;;;;;0.99;45.91;97787.25;5070791;28;20048;-53
2021/03/08 06:07:10;;;;;;;5.13;0.95;;;;;;;1.76;44.71;97858.91;5050642;28;20053;-56
2021/03/08 06:10:06;;;;;;;3.92;0.90;;;;;;;2.39;43.28;97869.88;5050377;28;20047;-54
2021/03/08 06:12:33;;;;;;;;;;;;;;;3.08;43.37;97872.41;5051182;28;20033;-53
2021/03/08 06:15:06;;;;;;;1.08;0.55;;;;;;;2.78;42.32;97843.06;5054043;28;20372;-57
2021/03/08 06:17:33;;;;;;;1.67;0.65;;;;;;;2.61;43.35;97891.13;5058709;28;20506;-55
2021/03/08 06:19:59;;;;;;;2.10;0.65;;;;;;;1.93;43.62;97892.75;5055490;28;20504;-54
2021/03/08 06:22:26;;;;;;;2.40;0.90;;;;;;;1.10;44.15;97853.19;5052866;28;20037;-56
2021/03/08 06:24:52;;;;;;;2.47;0.82;;;;;;;0.71;45.60;97895.47;5055460;28;20059;-58
2021/03/08 06:27:21;;;;;;;1.90;0.65;;;;;;;0.16;46.03;97900.19;5061327;28;20451;-52
2021/03/08 06:29:46;;;;;;;1.70;0.82;;;;;;;-0.08;47.04;97923.75;5052627;28;20025;-57
2021/03/08 06:32:12;;;;;;;1.90;0.60;;;;;;;-0.27;47.39;97919.72;5050445;28;20128;-54
2021/03/08 06:34:40;;;;;;;1.25;0.60;;;;;;;-0.50;46.57;97916.81;5052686;28;20079;-53
2021/03/08 06:37:11;;;;;;;2.15;0.88;;;;;;;-0.66;46.80;97931.94;5054107;28;20029;-55
2021/03/08 06:39:44;;;;;;;2.80;1.00;;;;;;;-1.34;47.68;97856.53;5058340;28;20040;-57
2021/03/08 06:42:12;;;;;;;2.03;1.02;;;;;;;-1.06;48.15;97941.44;5055770;28;20025;-54
2021/03/08 06:44:38;;;;;;;4.95;1.55;;;;;;;-1.04;47.29;97950.03;5057024;28;20032;-56
2021/03/08 06:47:08;;;;;;;3.40;0.85;;;;;;;-1.19;47.27;97945.78;5064562;28;20369;-54
2021/03/08 06:49:34;;;;;;;2.53;0.80;;;;;;;-1.30;47.38;97955.16;5055954;28;20040;-56
2021/03/08 06:52:08;;;;;;;4.15;0.95;;;;;;;-1.37;48.27;97964.34;5058985;28;20064;-56
2021/03/08 06:54:43;;;;;;;3.28;1.27;;;;;;;-1.28;48.04;97962.94;5050055;28;20045;-53
2021/03/08 06:57:25;;;;;;;2.17;1.10;;;;;;;-1.27;47.95;97971.66;5049003;28;20036;-56
2021/03/08 06:59:59;;;;;;;5.15;1.00;;;;;;;-1.39;47.66;97968.00;5049204;28;20071;-53
2021/03/08 07:02:48;;;;;;;7.63;1.17;;;;;;;-1.48;48.47;97975.53;5054361;28;20044;-54
2021/03/08 07:05:22;;;;;;;2.75;0.90;;;;;;;-1.39;48.51;97982.00;5062006;28;20040;-55
2021/03/08 07:08:01;;;;;;;2.88;1.20;;;;;;;-1.09;47.26;97985.41;5061839;28;20041;-53
2021/03/08 07:10:38;;;;;;;3.13;1.70;;;;;;;-0.65;46.67;97991.44;5056909;28;20107;-58
2021/03/08 07:13:08;;;;;;;2.15;1.20;;;;;;;-0.48;46.91;97990.34;5056558;28;20503;-57
2021/03/08 07:15:33;;;;;;;1.75;0.95;;;;;;;-0.37;46.62;97992.28;5053511;28;20040;-57
2021/03/08 07:17:59;;;;;;;2.42;1.38;;;;;;;-0.26;46.38;97997.66;5055491;28;20037;-52
2021/03/08 07:20:27;;;;;;;3.25;1.13;;;;;;;-0.11;46.28;98008.13;5056678;28;20429;-61
2021/03/08 07:22:54;;;;;;;2.33;1.48;;;;;;;0.19;45.39;97984.19;5056449;28;20044;-52
2021/03/08 07:25:28;;;;;;;5.63;1.50;;;;;;;0.32;44.92;98002.63;5062982;28;20426;-56
2021/03/08 07:27:59;;;;;;;2.60;1.10;;;;;;;0.45;44.86;98000.00;5061537;28;20068;-55
2021/03/08 07:30:29;;;;;;;2.45;1.30;;;;;;;0.66;44.52;98002.13;5058004;28;20041;-59
2021/03/08 07:33:03;;;;;;;2.08;1.05;;;;;;;0.59;45.29;97985.88;5058449;28;20093;-55
2021/03/08 07:35:42;;;;;;;3.50;1.30;;;;;;;0.91;45.25;98003.84;5055375;28;20035;-51
2021/03/08 07:38:30;;;;;;;4.57;1.60;;;;;;;1.48;44.25;98012.16;5060764;28;20029;-53
2021/03/08 07:41:15;;;;;;;3.58;1.20;;;;;;;1.81;43.40;98020.34;5058324;28;20056;-62
2021/03/08 07:43:43;;;;;;;2.28;1.35;;;;;;;2.40;43.02;98024.75;5057534;28;20037;-56
2021/03/08 07:46:35;;;;;;;3.78;1.23;;;;;;;2.92;41.10;98027.00;5058512;28;20366;-53
2021/03/08 07:49:05;;;;;;;5.15;1.77;;;;;;;3.68;39.83;98026.28;5059143;28;20408;-55
2021/03/08 07:51:31;;;;;;;4.13;1.20;;;;;;;4.66;38.69;98035.94;5051283;28;20114;-62
2021/03/08 07:54:03;;;;;;;1.67;1.02;;;;;;;4.30;37.03;98042.41;5053891;28;20028;-59
2021/03/08 07:56:29;;;;;;;1.67;1.30;;;;;;;3.38;39.39;98033.09;5055363;28;20033;-56
2021/03/08 07:58:55;;;;;;;6.63;2.38;;;;;;;3.35;39.40;98045.72;5056739;28;20456;-52
2021/03/08 08:01:21;;;;;;;6.38;2.22;;;;;;;4.23;37.97;98056.31;5061072;28;20052;-52
2021/03/08 08:03:47;;;;;;;4.00;2.20;;;;;;;4.48;37.37;98065.72;5067074;28;20048;-50
2021/03/08 08:06:17;;;;;;;6.72;2.50;;;;;;;4.13;37.24;98061.50;5059068;28;20047;-56
2021/03/08 08:08:54;;;;;;;5.03;1.70;;;;;;;3.43;38.01;98064.47;5056022;28;20064;-57
2021/03/08 08:11:22;;;;;;;4.97;1.60;;;;;;;2.56;38.58;98061.44;5061647;28;20037;-68
2021/03/08 08:13:53;;;;;;;2.97;1.35;;;;;;;2.09;39.78;98081.69;5059114;28;20037;-61
2021/03/08 08:16:22;;;;;;;2.22;1.20;;;;;;;1.80;39.91;98092.53;5060714;28;20035;-60
2021/03/08 08:18:50;;;;;;;3.17;1.17;;;;;;;1.42;40.55;98111.03;5055342;28;20047;-60
2021/03/08 08:21:18;;;;;;;2.10;1.23;;;;;;;1.33;40.75;98108.19;5054053;28;20037;-60
2021/03/08 08:23:46;;;;;;;2.72;1.40;;;;;;;1.07;40.02;98103.78;5057657;28;20131;-58
2021/03/08 08:26:15;;;;;;;4.43;1.10;;;;;;;0.79;40.57;98113.56;5053328;28;20033;-55
2021/03/08 08:28:53;;;;;;;2.17;1.10;;;;;;;0.48;41.33;98115.66;5057572;28;20123;-55
2021/03/08 08:31:21;;;;;;;2.63;1.35;;;;;;;0.23;41.15;98124.31;5056305;28;20045;-59
2021/03/08 08:33:46;;;;;;;4.10;1.25;;;;;;;-0.09;41.97;98119.38;5053498;28;20037;-60
2021/03/08 08:36:24;;;;;;;1.65;1.23;;;;;;;-0.09;42.84;98137.78;5060239;28;20047;-60
2021/03/08 08:38:52;;;;;;;2.03;1.10;;;;;;;-0.01;42.79;98146.88;5054289;28;20083;-60
2021/03/08 08:41:24;;;;;;;4.50;1.75;;;;;;;0.17;42.48;98145.78;5044017;28;20043;-59
2021/03/08 08:44:13;;;;;;;2.55;1.45;;;;;;;0.27;41.78;98157.41;5060829;28;20037;-60
2021/03/08 08:46:46;;;;;;;1.75;1.15;;;;;;;0.33;42.45;98161.41;5062089;28;20151;-58
2021/03/08 08:49:18;;;;;;;5.00;1.50;;;;;;;0.55;40.92;98166.97;5056339;28;20047;-59
2021/03/08 08:51:51;;;;;;;4.30;1.30;;;;;;;0.53;40.07;98152.22;5055131;28;20028;-55
2021/03/08 08:54:28;;;;;;;2.53;1.20;;;;;;;0.26;41.15;98108.34;5060459;28;20037;-58
2021/03/08 08:57:06;;;;;;;3.88;1.30;;;;;;;0.64;39.82;98173.41;5060499;28;20147;-56
2021/03/08 08:59:34;;;;;;;1.73;0.90;;;;;;;0.49;40.54;98170.00;5058426;28;20041;-53
2021/03/08 09:04:44;;;;;;;4.00;1.35;;;;;;;0.56;39.92;98188.88;5061343;28;20052;-59
2021/03/08 09:07:26;;;;;;;3.83;1.13;;;;;;;0.49;40.64;98204.22;5059445;28;20078;-56
2021/03/08 09:09:56;;;;;;;2.75;1.52;;;;;;;0.42;40.52;98203.78;5061466;28;20095;-57
2021/03/08 09:12:40;;;;;;;5.82;1.42;;;;;;;0.56;41.30;98208.16;5050617;28;20040;-60
2021/03/08 09:15:07;;;;;;;5.38;1.52;;;;;;;0.36;41.72;98206.81;5071606;28;20055;-57
2021/03/08 09:17:42;;;;;;;4.93;1.88;;;;;;;0.04;42.26;98187.81;5052080;28;20037;-57
2021/03/08 09:20:07;;;;;;;2.83;1.40;;;;;;;0.11;42.63;98226.81;5053660;28;20032;-55
2021/03/08 09:22:43;;;;;;;4.25;1.80;;;;;;;-0.05;42.66;98199.78;5058559;28;20131;-58
2021/03/08 09:25:09;;;;;;;3.55;1.30;;;;;;;0.21;42.22;98234.13;5049876;28;20449;-57
2021/03/08 09:27:40;;;;;;;3.65;1.70;;;;;;;0.14;41.65;98208.19;5054260;28;20209;-55
2021/03/08 09:30:13;;;;;;;6.60;1.58;;;;;;;0.28;42.06;98232.81;5053881;28;20502;-56
2021/03/08 09:33:06;;;;;;;3.88;1.77;;;;;;;0.38;42.68;98233.06;5070103;28;20036;-61
2021/03/08 09:35:53;;;;;;;3.95;1.52;;;;;;;0.42;41.10;98242.44;5060832;28;20051;-51
2021/03/08 09:38:24;;;;;;;5.15;2.05;;;;;;;0.34;41.37;98263.13;5057116;28;20156;-63
2021/03/08 09:40:56;;;;;;;3.38;1.73;;;;;;;0.31;41.19;98243.13;5057820;28;20399;-61
2021/03/08 09:43:30;;;;;;;4.50;1.50;;;;;;;0.35;42.10;98260.41;5062953;28;20122;-63
2021/03/08 09:46:08;;;;;;;3.10;1.55;;;;;;;0.08;42.03;98202.47;5051028;28;20036;-62
2021/03/08 09:48:37;;;;;;;5.97;1.63;;;;;;;0.49;42.15;98263.97;5067916;28;20091;-58
2021/03/08 09:51:13;;;;;;;5.63;1.77;;;;;;;0.37;41.86;98248.00;5058389;28;20124;-63
2021/03/08 09:53:41;;;;;;;3.80;1.45;;;;;;;0.33;42.60;98248.28;5068372;28;20059;-62
2021/03/08 09:56:09;;;;;;;5.53;1.92;;;;;;;0.44;43.26;98266.88;5060180;28;20032;-62
2021/03/08 09:58:36;;;;;;;3.85;1.90;;;;;;;0.38;42.83;98269.91;5057658;28;20041;-63
2021/03/08 10:01:15;;;;;;;2.30;1.55;;;;;;;0.29;42.71;98281.88;5057476;28;20071;-63
2021/03/08 10:03:40;;;;;;;4.07;2.05;;;;;;;0.40;42.60;98275.94;5059083;28;20048;-60
2021/03/08 10:06:06;;;;;;;3.65;1.60;;;;;;;0.53;42.29;98292.63;5055971;28;20463;-56
2021/03/08 10:08:32;;;;;;;5.47;2.15;;;;;;;0.52;42.74;98288.31;5061882;28;20519;-62
2021/03/08 10:10:59;;;;;;;5.72;1.85;;;;;;;0.66;42.45;98318.19;5064592;28;20098;-61
2021/03/08 10:13:26;;;;;;;2.30;1.42;;;;;;;0.59;41.55;98317.72;5068664;28;20548;-63
2021/03/08 10:15:54;;;;;;;4.65;1.63;;;;;;;0.48;41.69;98325.44;5078495;28;20036;-59
2021/03/08 10:18:27;;;;;;;6.30;2.38;;;;;;;0.13;41.49;98272.31;5083876;28;20028;-63
2021/03/08 10:20:54;;;;;;;3.30;1.77;;;;;;;0.39;42.01;98317.19;5041949;28;20475;-59
2021/03/08 10:23:35;;;;;;;6.45;1.92;;;;;;;0.37;42.04;98329.63;5034588;28;20051;-59
2021/03/08 10:26:07;;;;;;;5.35;1.95;;;;;;;0.42;42.23;98324.06;5062107;28;20040;-61
2021/03/08 10:28:42;;;;;;;2.63;1.48;;;;;;;0.47;42.21;98324.63;5066134;28;20037;-62
2021/03/08 10:31:26;;;;;;;5.57;1.50;;;;;;;0.29;41.93;98318.72;5063275;28;20558;-60
2021/03/08 10:34:10;;;;;;;5.40;1.75;;;;;;;0.26;41.99;98334.72;5058590;28;20504;-60
2021/03/08 10:36:38;;;;;;;2.03;1.38;;;;;;;0.05;41.89;98321.09;5059995;28;20085;-54
2021/03/08 10:39:09;;;;;;;3.05;1.08;;;;;;;-0.35;41.64;98282.28;5064548;28;20055;-57
2021/03/08 10:41:37;;;;;;;2.58;1.25;;;;;;;-0.13;41.99;98350.22;5071678;28;20180;-56
2021/03/08 10:44:03;;;;;;;3.60;1.00;;;;;;;-0.11;42.10;98360.66;5077255;28;20036;-58
2021/03/08 10:46:41;;;;;;;2.17;1.10;;;;;;;-0.03;41.37;98372.41;5078553;28;20044;-58
2021/03/08 10:49:09;;;;;;;3.90;1.10;;;;;;;-0.08;41.46;98368.34;5058249;28;20164;-58
2021/03/08 10:51:36;;;;;;;3.80;1.05;;;;;;;-0.18;41.32;98358.41;5063868;28;20036;-60
2021/03/08 10:54:07;;;;;;;2.13;1.20;;;;;;;-0.22;41.33;98367.41;5082037;28;20135;-60
2021/03/08 10:56:34;;;;;;;2.05;1.30;;;;;;;-0.20;41.45;98365.53;5073020;28;20518;-61
2021/03/08 10:59:00;;;;;;;1.90;1.02;;;;;;;-0.11;41.42;98365.91;5077664;28;20063;-59
2021/03/08 11:01:27;;;;;;;4.82;1.15;;;;;;;-0.13;40.81;98376.50;5065454;28;20060;-59
2021/03/08 11:03:53;;;;;;;2.30;1.17;;;;;;;-0.13;40.43;98370.41;5053358;28;20040;-60
2021/03/08 11:06:21;;;;;;;3.53;1.40;;;;;;;-0.05;40.87;98379.56;5055520;28;20036;-61
2021/03/08 11:09:01;;;;;;;3.28;1.60;;;;;;;-0.35;41.02;98309.44;5055995;28;20399;-60
2021/03/08 11:11:29;;;;;;;3.00;1.35;;;;;;;0.19;40.28;98376.38;5051897;28;20039;-63
2021/03/08 11:13:59;;;;;;;2.70;1.20;;;;;;;0.20;40.94;98371.94;5060970;28;20036;-60
2021/03/08 11:16:24;;;;;;;1.85;1.10;;;;;;;0.53;41.12;98386.59;5050740;28;20378;-62
2021/03/08 11:18:50;;;;;;;2.65;1.15;;;;;;;0.64;40.35;98375.41;5064966;28;20040;-59
2021/03/08 11:21:26;;;;;;;3.78;1.00;;;;;;;0.82;40.21;98389.19;5066300;28;20064;-59
2021/03/08 11:23:53;;;;;;;4.93;1.35;;;;;;;0.89;40.20;98393.09;5062256;28;20453;-61
2021/03/08 11:26:21;;;;;;;3.25;1.10;;;;;;;0.91;40.43;98396.50;5050739;28;20131;-56
2021/03/08 11:28:46;;;;;;;2.92;1.05;;;;;;;0.90;40.52;98397.44;5055921;28;20584;-59
2021/03/08 11:31:22;;;;;;;3.85;0.88;;;;;;;0.83;40.38;98385.59;5056096;28;20127;-60
2021/03/08 11:33:55;;;;;;;2.72;1.20;;;;;;;1.06;40.33;98415.75;5066586;28;20032;-56
2021/03/08 11:36:32;;;;;;;1.95;1.13;;;;;;;0.30;39.34;98278.31;5070289;28;20037;-55
2021/03/08 11:39:07;;;;;;;4.53;0.98;;;;;;;1.06;39.45;98407.84;5071642;28;20396;-59
2021/03/08 11:41:34;;;;;;;2.00;1.13;;;;;;;1.06;39.47;98417.53;5072036;28;20105;-61
2021/03/08 11:44:00;;;;;;;4.35;1.08;;;;;;;0.86;39.81;98411.75;5064955;28;20819;-56
2021/03/08 11:46:25;;;;;;;3.15;1.50;;;;;;;0.66;39.59;98416.47;5062407;28;20082;-56
2021/03/08 11:48:59;;;;;;;2.70;1.20;;;;;;;0.51;40.14;98428.00;5060022;28;20043;-59
2021/03/08 11:51:25;;;;;;;2.40;1.45;;;;;;;0.22;40.13;98393.75;5063162;28;20068;-60
2021/03/08 11:53:50;;;;;;;3.75;1.13;;;;;;;-0.06;40.10;98355.94;5061752;28;20507;-58
2021/03/08 11:56:16;;;;;;;3.55;1.48;;;;;;;0.50;40.30;98427.13;5040344;28;20116;-59